Finike, Turkey
Current Conditions -  °F | °C
As of 6:50 PM on Friday 24 Oct 2014 (Local Time) from LTAI Reporting Station
Rain Showers Rain Showers  
Wind Chill: 21°   Ceiling: 2000
Heat Index: 21°   Visibility: 6mi
Dew Point: 18°   Wind: 14mph
Humidity: 83%   Direction: 140°SE
Pressure: 29.91"   Gusts: NA
Location:  36.3°N, 30.14°E
Report Text: LTAI 241550Z 14012KT 110V170 9999 -SHRA SCT012CB BKN020 21/18 Q1013 NOSIG
Loading
Personal Weather Stations






























Interactive Weather Map
Tropical Storm Tracking
New forecast layout! Learn more

10-Day Weather Forecast

Advertisements
Track Severe Weather on mobile